Time;durP1;ratioP1;P1;durP2;ratioP2;P2;SDS_P1;SDS_P2;PMS_P1;PMS_P2;Temp;Humidity;BMP_temperature;BMP_pressure;BME280_temperature;BME280_humidity;BME280_pressure;Samples;Min_cycle;Max_cycle;Signal;HPM_P1;HPM_P2
2024/04/23 00:01:21;;;;;;;2.38;1.40;;;17.50;37.80;;;;;;5452163;26;20232;-63
2024/04/23 00:03:50;;;;;;;2.53;1.30;;;17.50;37.90;;;;;;5452767;26;20663;-63
2024/04/23 00:06:16;;;;;;;2.55;1.30;;;17.50;38.00;;;;;;5451985;26;20283;-63
2024/04/23 00:08:44;;;;;;;1.67;1.40;;;17.50;38.00;;;;;;5452345;26;20227;-63
2024/04/23 00:11:13;;;;;;;2.80;1.63;;;17.50;38.00;;;;;;5452403;26;20232;-63
2024/04/23 00:13:41;;;;;;;1.35;1.08;;;17.50;38.00;;;;;;5452678;26;20975;-63
2024/04/23 00:16:07;;;;;;;2.40;1.40;;;17.50;38.00;;;;;;5452333;26;20231;-63
2024/04/23 00:18:36;;;;;;;4.20;1.50;;;17.50;38.10;;;;;;5452585;26;20750;-63
2024/04/23 00:21:02;;;;;;;1.92;1.30;;;17.50;38.10;;;;;;5451696;26;20228;-63
2024/04/23 00:23:32;;;;;;;2.15;1.27;;;17.50;38.10;;;;;;5452412;26;20270;-63
2024/04/23 00:25:58;;;;;;;2.08;1.10;;;17.50;38.10;;;;;;5452344;26;20232;-63
2024/04/23 00:28:29;;;;;;;2.38;1.17;;;17.50;38.10;;;;;;5452659;26;20383;-63
2024/04/23 00:30:55;;;;;;;2.03;1.40;;;17.50;38.10;;;;;;5451806;26;20716;-63
2024/04/23 00:33:23;;;;;;;1.42;1.23;;;17.50;38.20;;;;;;5452240;26;20270;-63
2024/04/23 00:35:49;;;;;;;3.38;1.38;;;17.50;38.10;;;;;;5451200;26;20262;-63
2024/04/23 00:38:18;;;;;;;1.58;1.40;;;17.50;38.10;;;;;;5451990;26;20262;-63
2024/04/23 00:40:44;;;;;;;1.40;1.30;;;17.50;38.90;;;;;;5452198;26;20216;-64
2024/04/23 00:43:13;;;;;;;1.95;1.40;;;17.50;38.20;;;;;;5451961;26;20276;-63
2024/04/23 00:45:45;;;;;;;2.72;1.30;;;17.50;38.20;;;;;;5451820;26;20215;-63
2024/04/23 00:48:15;;;;;;;5.20;1.33;;;17.50;38.30;;;;;;5451889;26;20224;-63
2024/04/23 00:50:44;;;;;;;1.77;1.38;;;17.50;38.30;;;;;;5451153;26;20616;-63
2024/04/23 00:53:15;;;;;;;2.75;1.48;;;17.50;38.30;;;;;;5451604;26;20227;-63
2024/04/23 00:55:42;;;;;;;3.33;1.58;;;17.50;38.30;;;;;;5451683;26;20761;-63
2024/04/23 00:58:11;;;;;;;1.85;1.13;;;17.50;38.30;;;;;;5452000;26;20267;-63
2024/04/23 01:00:37;;;;;;;2.22;1.30;;;17.50;38.30;;;;;;5451921;26;20761;-63
2024/04/23 01:03:09;;;;;;;1.58;1.48;;;17.50;38.30;;;;;;5451906;26;20228;-63
2024/04/23 01:05:35;;;;;;;2.08;1.20;;;17.50;38.30;;;;;;5451106;26;20250;-63
2024/04/23 01:08:03;;;;;;;2.72;1.48;;;17.50;38.30;;;;;;5451317;26;20294;-63
2024/04/23 01:10:33;;;;;;;1.58;1.30;;;17.50;38.30;;;;;;5451512;26;20250;-63
2024/04/23 01:12:59;;;;;;;2.08;1.00;;;17.50;38.30;;;;;;5451427;26;20305;-63
2024/04/23 01:15:29;;;;;;;2.80;1.30;;;17.50;39.00;;;;;;5451450;26;20295;-63
2024/04/23 01:18:02;;;;;;;2.80;1.40;;;17.50;38.30;;;;;;5451557;26;20971;-63
2024/04/23 01:20:35;;;;;;;1.83;1.30;;;17.40;38.40;;;;;;5450867;26;20291;-63
2024/04/23 01:23:20;;;;;;;1.85;1.27;;;17.40;38.20;;;;;;5450958;26;20840;-63
2024/04/23 01:25:51;;;;;;;3.05;1.08;;;17.50;38.30;;;;;;5451173;26;20729;-63
2024/04/23 01:28:19;;;;;;;2.75;1.40;;;17.40;38.30;;;;;;5451253;26;20282;-63
2024/04/23 01:30:49;;;;;;;1.30;1.10;;;17.40;38.30;;;;;;5450820;26;20248;-63
2024/04/23 01:33:16;;;;;;;3.25;1.45;;;17.40;38.30;;;;;;5451173;26;20259;-63
2024/04/23 01:35:46;;;;;;;1.63;1.23;;;17.40;38.30;;;;;;5450325;26;20337;-63
2024/04/23 01:38:13;;;;;;;1.83;1.25;;;17.40;38.40;;;;;;5450904;26;20220;-63
2024/04/23 01:40:42;;;;;;;2.58;1.23;;;17.40;38.30;;;;;;5451071;26;20228;-63
2024/04/23 01:43:08;;;;;;;2.45;1.20;;;17.40;38.30;;;;;;5451045;26;20216;-63
2024/04/23 01:45:40;;;;;;;2.03;1.35;;;17.40;38.30;;;;;;5450862;26;20219;-63
2024/04/23 01:48:07;;;;;;;1.42;1.10;;;17.40;38.30;;;;;;5450860;26;20270;-63
2024/04/23 01:50:37;;;;;;;1.60;1.35;;;17.40;38.30;;;;;;5450282;26;20267;-63
2024/04/23 01:53:03;;;;;;;1.75;1.27;;;17.40;38.30;;;;;;5450812;26;20291;-63
2024/04/23 01:55:32;;;;;;;1.92;1.30;;;17.40;38.40;;;;;;5454792;26;20279;-63
2024/04/23 01:57:58;;;;;;;2.97;1.30;;;17.40;38.40;;;;;;5454582;26;20294;-63
2024/04/23 02:00:27;;;;;;;1.30;1.20;;;17.40;38.40;;;;;;5454258;26;20228;-63
2024/04/23 02:02:56;;;;;;;2.05;1.17;;;17.40;39.10;;;;;;5454287;26;20291;-63
2024/04/23 02:05:27;;;;;;;1.63;1.23;;;17.40;38.40;;;;;;5453707;26;20266;-63
2024/04/23 02:07:54;;;;;;;1.63;1.20;;;17.40;38.50;;;;;;5454182;26;20283;-63
2024/04/23 02:10:23;;;;;;;3.22;1.23;;;17.40;38.50;;;;;;5454366;26;20270;-63
2024/04/23 02:12:49;;;;;;;1.80;1.38;;;17.40;38.50;;;;;;5454190;26;20236;-63
2024/04/23 02:15:19;;;;;;;1.58;1.20;;;17.40;38.50;;;;;;5454151;26;20702;-63
2024/04/23 02:17:45;;;;;;;1.98;1.20;;;17.40;38.50;;;;;;5454312;26;20231;-63
2024/04/23 02:20:16;;;;;;;1.40;1.15;;;17.40;38.50;;;;;;5453363;26;20561;-63
2024/04/23 02:22:42;;;;;;;1.52;1.30;;;17.40;38.50;;;;;;5453778;26;20224;-63
2024/04/23 02:25:11;;;;;;;1.30;1.20;;;17.40;38.50;;;;;;5454101;26;20870;-63
2024/04/23 02:27:37;;;;;;;1.45;1.10;;;17.40;38.50;;;;;;5453975;26;20239;-63
2024/04/23 02:30:06;;;;;;;1.35;1.17;;;17.40;38.50;;;;;;5453608;26;20278;-63
2024/04/23 02:32:32;;;;;;;2.42;1.40;;;17.40;38.50;;;;;;5453925;26;20267;-63
2024/04/23 02:35:01;;;;;;;1.83;1.40;;;17.40;38.50;;;;;;5453299;26;20888;-63
2024/04/23 02:37:29;;;;;;;2.88;1.45;;;17.40;38.60;;;;;;5453601;26;20236;-63
2024/04/23 02:39:58;;;;;;;1.73;1.05;;;17.40;38.60;;;;;;5454064;26;20288;-63
2024/04/23 02:42:24;;;;;;;1.98;1.30;;;17.40;38.60;;;;;;5453874;26;20227;-63
2024/04/23 02:44:53;;;;;;;1.30;1.20;;;17.40;38.60;;;;;;5453645;26;20281;-63
2024/04/23 02:47:19;;;;;;;1.17;1.08;;;17.30;38.50;;;;;;5453823;26;20270;-63
2024/04/23 02:49:47;;;;;;;2.38;1.30;;;17.40;39.30;;;;;;5453081;26;20223;-63
2024/04/23 02:52:13;;;;;;;1.77;1.55;;;17.40;39.30;;;;;;5453570;26;20239;-63
2024/04/23 02:54:44;;;;;;;1.35;1.20;;;17.30;38.60;;;;;;5453963;26;20583;-63
2024/04/23 02:57:10;;;;;;;1.98;1.58;;;17.30;38.60;;;;;;5453696;26;20282;-63
2024/04/23 02:59:39;;;;;;;1.40;1.15;;;17.30;38.60;;;;;;5453620;26;20270;-63
2024/04/23 03:02:06;;;;;;;1.30;1.20;;;17.30;38.60;;;;;;5453496;26;20232;-63
2024/04/23 03:04:35;;;;;;;1.30;1.20;;;17.30;39.30;;;;;;5452544;26;20589;-63
2024/04/23 03:07:01;;;;;;;1.40;1.30;;;17.30;38.60;;;;;;5452338;26;20622;-63
2024/04/23 03:09:29;;;;;;;2.30;1.23;;;17.30;38.60;;;;;;5453494;26;20228;-63
2024/04/23 03:11:58;;;;;;;1.00;1.00;;;17.30;38.70;;;;;;5453368;26;20633;-63
2024/04/23 03:14:27;;;;;;;2.40;1.30;;;17.30;38.70;;;;;;5453342;26;20262;-63
2024/04/23 03:16:53;;;;;;;2.35;1.40;;;17.30;38.70;;;;;;5453318;26;20291;-63
2024/04/23 03:19:22;;;;;;;1.42;1.23;;;17.30;39.40;;;;;;5452732;26;20224;-63
2024/04/23 03:21:50;;;;;;;1.50;1.40;;;17.30;39.40;;;;;;5453025;26;20232;-63
2024/04/23 03:24:19;;;;;;;2.30;1.40;;;17.30;38.70;;;;;;5453082;26;20274;-63
2024/04/23 03:26:45;;;;;;;2.28;1.38;;;17.30;38.70;;;;;;5453390;26;20274;-63
2024/04/23 03:29:17;;;;;;;1.40;1.30;;;17.30;39.40;;;;;;5452531;26;20236;-63
2024/04/23 03:31:43;;;;;;;3.03;1.60;;;17.30;38.80;;;;;;5453112;26;20725;-63
2024/04/23 03:34:12;;;;;;;1.33;1.17;;;17.30;38.80;;;;;;5452343;26;20235;-63
2024/04/23 03:36:38;;;;;;;1.50;1.40;;;17.30;38.80;;;;;;5452887;26;20235;-63
2024/04/23 03:39:07;;;;;;;1.95;1.17;;;17.30;38.90;;;;;;5453088;26;20263;-63
2024/04/23 03:41:33;;;;;;;1.20;1.10;;;17.30;38.90;;;;;;5452870;26;20618;-63
2024/04/23 03:44:01;;;;;;;3.42;1.35;;;17.30;38.90;;;;;;5452782;26;20220;-63
2024/04/23 03:46:33;;;;;;;1.50;1.40;;;17.30;39.60;;;;;;5452900;26;20620;-63
2024/04/23 03:49:01;;;;;;;2.40;1.50;;;17.30;38.90;;;;;;5452039;26;20748;-63
2024/04/23 03:51:27;;;;;;;1.50;1.30;;;17.30;38.90;;;;;;5452761;26;20239;-63
2024/04/23 03:53:56;;;;;;;2.05;1.33;;;17.30;38.90;;;;;;5453075;26;20411;-63
2024/04/23 03:56:22;;;;;;;1.40;1.17;;;17.30;39.00;;;;;;5452935;26;20239;-63
2024/04/23 03:58:50;;;;;;;1.83;1.30;;;17.30;39.00;;;;;;5452756;26;20224;-63
2024/04/23 04:01:16;;;;;;;1.30;1.20;;;17.30;39.00;;;;;;5452665;26;20212;-63
2024/04/23 04:06:32;;;;;;;1.55;1.30;;;17.30;39.10;;;;;;5455100;26;20270;-63
2024/04/23 04:09:00;;;;;;;2.20;1.73;;;17.30;39.10;;;;;;5452711;26;20223;-63
2024/04/23 04:11:32;;;;;;;1.88;1.38;;;17.20;39.00;;;;;;5452324;26;20270;-63
2024/04/23 04:14:01;;;;;;;1.58;1.48;;;17.20;39.00;;;;;;5452482;26;20701;-63
2024/04/23 04:16:30;;;;;;;3.88;1.20;;;17.20;38.90;;;;;;5451842;26;20231;-63
2024/04/23 04:18:58;;;;;;;1.90;1.38;;;17.20;39.00;;;;;;5451924;26;20641;-63
2024/04/23 04:21:27;;;;;;;2.50;1.40;;;17.30;39.10;;;;;;5452208;26;20319;-63
2024/04/23 04:23:53;;;;;;;2.58;1.83;;;17.20;39.00;;;;;;5452452;26;20220;-63
2024/04/23 04:26:21;;;;;;;2.05;1.40;;;17.30;39.10;;;;;;5452237;26;20227;-63
2024/04/23 04:28:47;;;;;;;1.50;1.40;;;17.20;39.00;;;;;;5451798;26;20592;-63
2024/04/23 04:31:16;;;;;;;2.35;1.35;;;17.20;39.00;;;;;;5452079;26;20721;-63
2024/04/23 04:33:42;;;;;;;1.83;1.30;;;17.20;39.00;;;;;;5451646;26;20259;-63
2024/04/23 04:36:13;;;;;;;2.70;1.20;;;17.20;39.00;;;;;;5452072;26;20235;-63
2024/04/23 04:38:39;;;;;;;1.50;1.40;;;17.20;39.00;;;;;;5452180;26;20216;-63
2024/04/23 04:41:08;;;;;;;2.35;1.40;;;17.20;39.00;;;;;;5452149;26;20693;-63
2024/04/23 04:43:34;;;;;;;1.52;1.23;;;17.20;39.00;;;;;;5452439;26;20259;-63
2024/04/23 04:46:03;;;;;;;2.05;1.33;;;17.20;39.00;;;;;;5452329;26;20224;-63
2024/04/23 04:48:29;;;;;;;1.52;1.13;;;17.20;39.70;;;;;;5451493;26;20254;-63
2024/04/23 04:50:58;;;;;;;1.90;1.20;;;17.20;39.70;;;;;;5452113;26;20274;-63
2024/04/23 04:53:27;;;;;;;2.47;1.50;;;17.20;39.00;;;;;;5451912;26;20228;-63
2024/04/23 04:55:56;;;;;;;1.35;1.20;;;17.20;39.00;;;;;;5451932;26;20266;-63
2024/04/23 04:58:22;;;;;;;1.30;1.20;;;17.20;39.00;;;;;;5451583;26;20274;-63
2024/04/23 05:00:52;;;;;;;2.55;1.48;;;17.20;39.00;;;;;;5451845;26;20266;-63
2024/04/23 05:03:18;;;;;;;2.00;1.30;;;17.20;39.00;;;;;;5450967;26;20282;-63
2024/04/23 05:05:47;;;;;;;1.75;1.13;;;17.20;39.00;;;;;;5451414;26;20573;-63
2024/04/23 05:08:13;;;;;;;2.22;1.58;;;17.20;39.00;;;;;;5451434;26;20263;-63
2024/04/23 05:10:44;;;;;;;1.63;1.30;;;17.20;39.70;;;;;;5451603;26;20760;-63
2024/04/23 05:13:10;;;;;;;1.92;1.48;;;17.20;39.00;;;;;;5451276;26;20279;-63
2024/04/23 05:15:38;;;;;;;2.30;1.40;;;17.20;39.00;;;;;;5451778;26;20559;-63
2024/04/23 05:18:05;;;;;;;2.08;1.48;;;17.20;39.00;;;;;;5450691;26;20267;-63
2024/04/23 05:20:34;;;;;;;1.92;1.42;;;17.10;39.00;;;;;;5451232;26;20593;-63
2024/04/23 05:22:59;;;;;;;1.70;1.52;;;17.20;39.70;;;;;;5451274;26;20228;-63
2024/04/23 05:25:28;;;;;;;1.70;1.30;;;17.20;39.00;;;;;;5451418;26;20604;-63
2024/04/23 05:27:57;;;;;;;1.70;1.60;;;17.10;38.90;;;;;;5451006;26;20819;-63
2024/04/23 05:33:06;;;;;;;3.80;1.70;;;17.10;39.00;;;;;;5379587;26;20276;-63
2024/04/23 05:35:35;;;;;;;1.70;1.20;;;17.10;39.00;;;;;;5380057;26;20226;-64
2024/04/23 05:38:01;;;;;;;1.58;1.40;;;17.20;39.00;;;;;;5380327;26;20253;-63
2024/04/23 05:40:30;;;;;;;1.77;1.50;;;17.10;39.00;;;;;;5380675;26;20278;-63
2024/04/23 05:43:01;;;;;;;1.35;1.15;;;17.10;39.60;;;;;;5380063;26;20238;-63
2024/04/23 05:45:29;;;;;;;1.63;1.50;;;17.10;39.00;;;;;;5380324;26;20221;-63
2024/04/23 05:48:35;;;;;;;1.70;1.38;;;17.10;39.00;;;;;;5379904;26;20285;-63
2024/04/23 05:51:40;;;;;;;2.03;1.40;;;17.10;39.00;;;;;;5379878;26;20763;-63
2024/04/23 05:54:46;;;;;;;3.33;1.98;;;17.10;39.10;;;;;;5380409;26;20261;-63
2024/04/23 05:57:12;;;;;;;2.25;1.30;;;17.10;39.20;;;;;;5379886;26;20238;-63
2024/04/23 05:59:43;;;;;;;2.03;1.35;;;17.10;39.10;;;;;;5380475;26;20721;-63
2024/04/23 06:02:09;;;;;;;2.70;1.48;;;17.10;39.20;;;;;;5379297;26;20269;-63
2024/04/23 06:04:37;;;;;;;1.50;1.40;;;17.10;39.10;;;;;;5379934;26;20226;-63
2024/04/23 06:07:03;;;;;;;2.10;1.23;;;17.10;39.20;;;;;;5379998;26;20282;-63
2024/04/23 06:09:32;;;;;;;1.70;1.60;;;17.10;39.20;;;;;;5389703;26;20226;-63
2024/04/23 06:11:58;;;;;;;2.00;1.30;;;17.10;39.20;;;;;;5453990;26;20239;-63
2024/04/23 06:14:27;;;;;;;1.70;1.30;;;17.10;39.90;;;;;;5454319;26;20227;-63
2024/04/23 06:17:19;;;;;;;1.58;1.35;;;17.10;39.30;;;;;;5453519;26;20228;-63
2024/04/23 06:19:50;;;;;;;1.60;1.50;;;17.10;39.30;;;;;;5454093;26;20258;-63
2024/04/23 06:22:17;;;;;;;2.60;1.60;;;17.10;39.30;;;;;;5454115;26;20274;-63
2024/04/23 06:24:47;;;;;;;1.77;1.45;;;17.10;39.30;;;;;;5454051;26;20223;-63
2024/04/23 06:27:14;;;;;;;4.95;1.60;;;17.10;39.30;;;;;;5453829;26;20232;-63
2024/04/23 06:29:42;;;;;;;4.07;1.63;;;17.10;39.30;;;;;;5453967;26;20319;-63
2024/04/23 06:32:08;;;;;;;2.53;1.35;;;17.10;39.30;;;;;;5453250;26;20228;-63
2024/04/23 06:34:39;;;;;;;1.83;1.60;;;17.10;39.30;;;;;;5453688;26;20278;-63
2024/04/23 06:37:05;;;;;;;1.27;1.17;;;17.10;39.30;;;;;;5454138;26;20274;-63
2024/04/23 06:39:34;;;;;;;1.58;1.48;;;17.10;39.30;;;;;;5453636;26;20709;-63
2024/04/23 06:42:00;;;;;;;3.22;1.50;;;17.10;39.30;;;;;;5453557;26;20254;-63
2024/04/23 06:44:29;;;;;;;1.73;1.48;;;17.10;39.30;;;;;;5453683;26;20232;-63
2024/04/23 06:46:55;;;;;;;2.20;1.45;;;17.10;39.40;;;;;;5443085;26;20245;-63
2024/04/23 06:49:24;;;;;;;1.92;1.58;;;17.10;39.30;;;;;;5443140;26;20236;-63
2024/04/23 06:51:54;;;;;;;3.35;1.42;;;17.10;39.30;;;;;;5452444;26;20781;-63
2024/04/23 06:54:22;;;;;;;2.35;1.50;;;17.10;39.30;;;;;;5452221;26;20236;-63
2024/04/23 06:56:48;;;;;;;1.80;1.50;;;17.10;39.30;;;;;;5452025;26;20232;-63
2024/04/23 06:59:17;;;;;;;1.58;1.38;;;17.10;39.30;;;;;;5451444;26;20282;-64
2024/04/23 07:01:44;;;;;;;2.33;1.50;;;17.20;39.40;;;;;;5450979;26;20231;-63
2024/04/23 07:04:13;;;;;;;2.70;1.50;;;17.20;39.30;;;;;;5450301;26;20240;-63
2024/04/23 07:06:39;;;;;;;1.92;1.63;;;17.20;39.30;;;;;;5443278;26;20228;-63
2024/04/23 07:09:10;;;;;;;3.95;1.30;;;17.20;40.00;;;;;;5452267;26;20247;-63
2024/04/23 07:11:37;;;;;;;3.97;1.83;;;17.20;39.40;;;;;;5451582;26;20271;-64
2024/04/23 07:14:06;;;;;;;2.60;1.63;;;17.20;39.40;;;;;;5452176;26;20243;-62
2024/04/23 07:16:32;;;;;;;2.30;1.60;;;17.20;39.60;;;;;;5451474;26;20228;-63
2024/04/23 07:19:00;;;;;;;2.08;1.48;;;17.30;39.80;;;;;;5451629;26;20277;-64
2024/04/23 07:21:26;;;;;;;3.72;1.55;;;17.30;40.00;;;;;;5449838;26;20228;-63
2024/04/23 07:23:55;;;;;;;4.20;1.77;;;17.40;40.10;;;;;;5435877;26;20239;-63
2024/04/23 07:26:24;;;;;;;3.15;1.60;;;17.40;40.20;;;;;;5440669;26;20275;-64
2024/04/23 07:28:52;;;;;;;2.35;1.50;;;17.40;40.80;;;;;;5433408;26;20236;-63
2024/04/23 07:31:19;;;;;;;1.83;1.60;;;17.40;40.00;;;;;;5438145;26;20266;-63
2024/04/23 07:33:48;;;;;;;2.70;1.50;;;17.40;40.00;;;;;;5446719;26;20236;-63
2024/04/23 07:36:14;;;;;;;3.00;1.48;;;17.40;40.00;;;;;;5448810;26;20228;-63
2024/04/23 07:38:43;;;;;;;2.63;1.80;;;17.40;40.00;;;;;;5448349;26;20595;-63
2024/04/23 07:41:09;;;;;;;2.63;1.50;;;17.50;40.10;;;;;;5448124;26;20267;-63
2024/04/23 07:43:40;;;;;;;3.55;2.08;;;17.50;40.10;;;;;;5448263;26;20244;-64
2024/04/23 07:46:06;;;;;;;2.95;1.63;;;17.50;40.10;;;;;;5447402;26;20232;-63
2024/04/23 07:48:34;;;;;;;1.88;1.50;;;17.50;40.10;;;;;;5448952;26;20236;-62
2024/04/23 07:51:00;;;;;;;2.67;1.77;;;17.50;40.70;;;;;;5446682;26;20382;-75
2024/04/23 07:53:31;;;;;;;2.00;1.38;;;17.50;40.10;;;;;;5447803;26;20244;-73
2024/04/23 07:56:00;;;;;;;6.85;1.45;;;17.60;40.00;;;;;;5447952;26;20232;-74
2024/04/23 07:58:26;;;;;;;2.35;1.50;;;17.60;39.90;;;;;;5448020;26;20235;-73
2024/04/23 08:00:57;;;;;;;1.52;1.30;;;17.60;39.90;;;;;;5448371;26;20663;-73
2024/04/23 08:03:23;;;;;;;1.55;1.25;;;17.60;39.90;;;;;;5448129;26;21067;-71
2024/04/23 08:05:56;;;;;;;2.38;1.52;;;17.60;39.90;;;;;;5447623;26;20283;-73
2024/04/23 08:08:22;;;;;;;3.03;1.40;;;17.60;39.90;;;;;;5448833;26;20710;-75
2024/04/23 08:10:51;;;;;;;2.70;1.83;;;17.60;40.00;;;;;;5438362;26;20244;-73
2024/04/23 08:13:17;;;;;;;2.00;1.42;;;17.60;39.90;;;;;;5445744;26;20266;-74
2024/04/23 08:15:46;;;;;;;3.05;1.40;;;17.60;39.90;;;;;;5446607;26;20328;-70
2024/04/23 08:18:14;;;;;;;2.53;1.48;;;17.60;39.90;;;;;;5436981;26;20227;-75
2024/04/23 08:20:43;;;;;;;2.05;1.42;;;17.70;40.00;;;;;;5447973;26;20255;-75
2024/04/23 08:23:09;;;;;;;1.50;1.38;;;17.70;40.60;;;;;;5446329;26;20239;-73
2024/04/23 08:25:38;;;;;;;2.50;1.25;;;17.70;39.90;;;;;;5444522;26;20239;-73
2024/04/23 08:28:04;;;;;;;3.30;1.60;;;17.70;40.00;;;;;;5443046;26;20283;-74
2024/04/23 08:30:33;;;;;;;2.97;1.58;;;17.70;40.00;;;;;;5448126;26;20244;-65
2024/04/23 08:32:59;;;;;;;3.00;1.40;;;17.70;39.90;;;;;;5447523;26;20780;-73
2024/04/23 08:35:30;;;;;;;3.95;1.33;;;17.70;39.90;;;;;;5447293;26;20295;-74
2024/04/23 08:37:57;;;;;;;3.72;1.55;;;17.70;39.90;;;;;;5438804;26;20235;-73
2024/04/23 08:40:26;;;;;;;3.50;1.27;;;17.70;39.90;;;;;;5444590;26;20235;-74
2024/04/23 08:42:55;;;;;;;3.80;1.73;;;17.70;39.90;;;;;;5435180;26;20237;-72
2024/04/23 08:45:34;;;;;;;3.63;1.80;;;17.70;39.90;;;;;;5442475;26;20274;-72
2024/04/23 08:48:04;;;;;;;1.92;1.45;;;17.70;39.90;;;;;;5447247;26;20553;-73
2024/04/23 08:50:37;;;;;;;4.63;1.65;;;17.70;39.90;;;;;;5436688;26;20244;-70
2024/04/23 08:53:06;;;;;;;2.00;1.42;;;17.70;39.90;;;;;;5426891;26;20370;-72
2024/04/23 08:55:44;;;;;;;2.47;1.58;;;17.70;40.00;;;;;;5381481;26;20231;-69
2024/04/23 08:58:12;;;;;;;5.40;1.27;;;17.70;40.00;;;;;;5437016;26;20243;-72
2024/04/23 09:00:43;;;;;;;2.75;1.58;;;17.70;40.00;;;;;;5441205;26;20281;-71
2024/04/23 09:03:14;;;;;;;2.65;1.33;;;17.70;40.20;;;;;;5441512;26;20294;-72
2024/04/23 09:05:53;;;;;;;4.80;1.58;;;17.80;40.20;;;;;;5443454;26;20231;-71
2024/04/23 09:08:21;;;;;;;2.80;1.23;;;17.80;40.20;;;;;;5446828;26;20231;-70
2024/04/23 09:10:50;;;;;;;1.80;1.50;;;17.80;40.10;;;;;;5382350;26;20721;-66
2024/04/23 09:13:16;;;;;;;1.63;1.30;;;17.80;40.20;;;;;;5440024;26;20236;-71
2024/04/23 09:15:45;;;;;;;3.33;1.45;;;17.80;40.10;;;;;;5443606;26;20705;-71
2024/04/23 09:18:12;;;;;;;3.10;1.13;;;17.80;40.10;;;;;;5443475;26;20365;-69
2024/04/23 09:20:42;;;;;;;3.88;1.20;;;17.80;40.00;;;;;;5445625;26;20239;-70
2024/04/23 09:23:10;;;;;;;3.72;1.35;;;17.80;40.10;;;;;;5438825;26;20368;-71
2024/04/23 09:25:39;;;;;;;5.20;1.58;;;17.80;40.10;;;;;;5443931;26;20927;-71
2024/04/23 09:28:07;;;;;;;3.42;1.35;;;17.80;40.10;;;;;;5445078;26;20749;-66
2024/04/23 09:30:40;;;;;;;4.38;1.70;;;17.80;40.00;;;;;;5446646;26;20239;-70
2024/04/23 09:33:06;;;;;;;3.03;1.20;;;17.80;40.00;;;;;;5446383;26;20247;-70
2024/04/23 09:35:35;;;;;;;1.65;1.30;;;17.80;40.00;;;;;;5445350;26;20296;-71
2024/04/23 09:38:04;;;;;;;2.67;1.50;;;17.80;40.00;;;;;;5446080;26;20235;-69
2024/04/23 09:40:41;;;;;;;2.13;1.40;;;17.80;40.00;;;;;;5446001;26;20746;-70
2024/04/23 09:43:07;;;;;;;2.45;1.52;;;17.80;40.00;;;;;;5437123;26;20307;-70
2024/04/23 09:45:37;;;;;;;2.95;1.10;;;17.80;40.70;;;;;;5443681;26;20247;-71
2024/04/23 09:48:04;;;;;;;2.05;1.20;;;17.90;40.10;;;;;;5446605;26;20555;-70
2024/04/23 09:50:34;;;;;;;2.90;1.52;;;17.90;40.00;;;;;;5446269;26;20239;-70
2024/04/23 09:53:01;;;;;;;2.42;1.35;;;17.90;40.10;;;;;;5444405;26;20366;-71
2024/04/23 09:55:29;;;;;;;2.78;1.30;;;17.90;40.00;;;;;;5444102;26;20736;-71
2024/04/23 09:57:58;;;;;;;3.70;1.42;;;17.90;40.00;;;;;;5442243;26;20275;-70
2024/04/23 10:00:28;;;;;;;2.28;1.58;;;18.00;40.10;;;;;;5439473;26;20227;-68
2024/04/23 10:02:58;;;;;;;3.60;1.65;;;18.00;40.00;;;;;;5440663;26;20290;-70
2024/04/23 10:05:29;;;;;;;1.70;1.30;;;18.00;40.00;;;;;;5431700;26;20232;-70
2024/04/23 10:08:03;;;;;;;2.78;1.48;;;18.00;40.00;;;;;;5443193;26;20395;-70
2024/04/23 10:10:39;;;;;;;3.40;1.50;;;18.00;40.00;;;;;;5446122;26;20780;-68
2024/04/23 10:13:12;;;;;;;2.20;1.52;;;18.00;40.00;;;;;;5431782;26;20250;-71
2024/04/23 10:15:48;;;;;;;2.55;1.17;;;18.10;40.10;;;;;;5440623;26;20283;-71
2024/04/23 10:18:23;;;;;;;3.45;1.40;;;18.10;40.00;;;;;;5444409;26;20282;-71
2024/04/23 10:20:55;;;;;;;2.33;1.45;;;18.10;39.90;;;;;;5443922;26;20230;-71
2024/04/23 10:23:22;;;;;;;2.28;1.42;;;18.10;39.80;;;;;;5433641;26;20237;-71
2024/04/23 10:25:52;;;;;;;1.92;1.30;;;18.10;39.80;;;;;;5444364;26;20335;-71
2024/04/23 10:28:22;;;;;;;1.70;1.42;;;18.20;39.90;;;;;;5444630;26;20235;-70
2024/04/23 10:30:51;;;;;;;2.85;1.42;;;18.10;40.50;;;;;;5444213;26;20236;-73
2024/04/23 10:33:20;;;;;;;2.63;1.58;;;18.20;39.90;;;;;;5440654;26;20232;-71
2024/04/23 10:35:50;;;;;;;4.25;1.40;;;18.20;40.50;;;;;;5442399;26;20243;-71
2024/04/23 10:38:19;;;;;;;1.75;1.45;;;18.20;39.90;;;;;;5440349;26;20645;-68
2024/04/23 10:40:50;;;;;;;4.85;1.52;;;18.30;40.00;;;;;;5445142;26;20236;-70
2024/04/23 10:43:18;;;;;;;4.75;1.40;;;18.30;39.90;;;;;;5443927;26;20274;-68
2024/04/23 10:45:49;;;;;;;4.22;1.30;;;18.30;39.90;;;;;;5443409;26;20247;-70
2024/04/23 10:48:27;;;;;;;3.13;1.58;;;18.30;40.00;;;;;;5436711;26;20232;-70
2024/04/23 10:50:58;;;;;;;2.40;1.42;;;18.30;40.00;;;;;;5442191;26;20231;-71
2024/04/23 10:53:24;;;;;;;3.95;1.45;;;18.30;40.60;;;;;;5442128;26;20232;-71
2024/04/23 10:55:53;;;;;;;2.58;1.30;;;18.30;39.90;;;;;;5444775;26;20282;-71
2024/04/23 10:58:20;;;;;;;3.33;1.77;;;18.30;40.00;;;;;;5431893;26;20295;-74
2024/04/23 11:01:01;;;;;;;2.63;1.42;;;18.40;40.00;;;;;;5432419;26;20252;-69
2024/04/23 11:03:28;;;;;;;3.70;1.60;;;18.40;40.00;;;;;;5441897;26;21179;-73
2024/04/23 11:05:57;;;;;;;4.70;1.70;;;18.30;39.90;;;;;;5442643;26;20341;-73
2024/04/23 11:08:25;;;;;;;1.50;1.38;;;18.30;40.00;;;;;;5442907;26;21128;-72
2024/04/23 11:10:56;;;;;;;2.67;1.83;;;18.40;40.00;;;;;;5443371;26;20231;-70
2024/04/23 11:13:26;;;;;;;1.80;1.38;;;18.40;40.00;;;;;;5439735;26;20235;-71
2024/04/23 11:16:01;;;;;;;6.50;1.45;;;18.40;40.00;;;;;;5443145;26;20357;-71
2024/04/23 11:18:38;;;;;;;14.07;1.73;;;18.40;40.00;;;;;;5442396;26;20247;-72
2024/04/23 11:21:10;;;;;;;3.00;1.30;;;18.40;40.00;;;;;;5444713;26;20247;-71
2024/04/23 11:23:39;;;;;;;2.17;1.40;;;18.40;40.00;;;;;;5433735;26;20235;-71
2024/04/23 11:26:08;;;;;;;2.22;1.40;;;18.30;39.90;;;;;;5442417;26;20299;-71
2024/04/23 11:28:36;;;;;;;2.50;1.40;;;18.40;40.00;;;;;;5444304;26;20228;-71
2024/04/23 11:31:08;;;;;;;1.67;1.58;;;18.30;39.90;;;;;;5444501;26;20239;-71
2024/04/23 11:33:39;;;;;;;3.95;1.80;;;18.40;40.00;;;;;;5444879;26;20282;-71
2024/04/23 11:36:08;;;;;;;2.90;1.48;;;18.30;40.00;;;;;;5444003;26;20456;-71
2024/04/23 11:38:43;;;;;;;3.50;1.73;;;18.40;40.00;;;;;;5445398;26;20283;-69
2024/04/23 11:41:14;;;;;;;3.20;1.88;;;18.30;40.00;;;;;;5444570;26;20266;-71
2024/04/23 11:43:45;;;;;;;3.53;1.98;;;18.30;40.00;;;;;;5444766;26;20813;-71
2024/04/23 11:46:17;;;;;;;3.65;1.50;;;18.40;40.00;;;;;;5433494;26;20247;-71
2024/04/23 11:48:46;;;;;;;3.28;1.70;;;18.30;40.00;;;;;;5441365;26;20282;-73
2024/04/23 11:51:12;;;;;;;3.50;1.70;;;18.30;39.90;;;;;;5445267;26;20717;-71
2024/04/23 11:53:41;;;;;;;3.22;1.80;;;18.30;40.00;;;;;;5430338;26;20633;-70
2024/04/23 11:56:08;;;;;;;3.15;2.08;;;18.30;39.90;;;;;;5442862;26;20228;-70
2024/04/23 11:58:40;;;;;;;2.33;1.33;;;18.40;40.00;;;;;;5444131;26;20328;-71
2024/04/23 12:01:08;;;;;;;3.40;1.48;;;18.30;40.00;;;;;;5443703;26;20605;-73
2024/04/23 12:03:40;;;;;;;2.10;1.65;;;18.40;40.00;;;;;;5441069;26;20287;-72
2024/04/23 12:06:09;;;;;;;2.78;2.00;;;18.40;40.00;;;;;;5409834;26;21052;-73
2024/04/23 12:08:43;;;;;;;2.70;1.55;;;18.40;40.70;;;;;;5361635;26;20248;-72
2024/04/23 12:11:12;;;;;;;4.72;1.70;;;18.40;40.00;;;;;;5423981;26;20231;-66
2024/04/23 12:13:41;;;;;;;4.20;1.90;;;18.50;40.10;;;;;;5365832;26;20233;-66
2024/04/23 12:16:11;;;;;;;2.67;1.90;;;18.40;40.00;;;;;;5407574;26;20255;-66
2024/04/23 12:18:45;;;;;;;3.15;1.80;;;18.40;40.00;;;;;;5425056;26;20844;-64
2024/04/23 12:21:12;;;;;;;7.15;1.92;;;18.50;40.10;;;;;;5429377;26;20640;-69
2024/04/23 12:23:41;;;;;;;2.92;2.03;;;18.50;40.70;;;;;;5369436;26;20234;-68
2024/04/23 12:26:08;;;;;;;3.78;1.90;;;18.60;41.10;;;;;;5438261;26;20228;-72
2024/04/23 12:28:42;;;;;;;2.53;1.55;;;18.60;40.60;;;;;;5431199;26;20245;-73
2024/04/23 12:31:08;;;;;;;5.00;2.00;;;18.70;40.70;;;;;;5386700;26;20231;-72
2024/04/23 12:33:37;;;;;;;2.60;2.00;;;18.70;40.60;;;;;;5446072;26;20283;-73
2024/04/23 12:36:08;;;;;;;5.35;1.90;;;18.70;40.90;;;;;;5346323;26;20864;-72
2024/04/23 12:38:45;;;;;;;8.18;2.35;;;18.80;40.80;;;;;;5441492;26;20244;-74
2024/04/23 12:41:13;;;;;;;3.95;2.42;;;18.80;40.90;;;;;;5438495;26;20374;-71
2024/04/23 12:43:42;;;;;;;8.38;2.13;;;18.80;40.90;;;;;;5440377;26;20298;-69
2024/04/23 12:46:09;;;;;;;3.78;2.15;;;18.90;41.00;;;;;;5435883;26;20235;-73
2024/04/23 12:48:42;;;;;;;5.55;2.10;;;19.00;40.90;;;;;;5440824;26;20305;-73
2024/04/23 12:51:13;;;;;;;5.93;1.80;;;19.00;41.00;;;;;;5296940;26;21113;-69
2024/04/23 12:53:42;;;;;;;5.28;2.00;;;19.00;40.90;;;;;;5440856;26;20832;-69
2024/04/23 12:56:11;;;;;;;4.95;1.90;;;19.00;40.80;;;;;;5408049;26;20283;-73
2024/04/23 12:58:40;;;;;;;4.07;2.13;;;19.00;40.90;;;;;;5443659;26;20240;-72
2024/04/23 13:01:07;;;;;;;2.78;1.75;;;19.10;40.80;;;;;;5442732;26;21072;-70
2024/04/23 13:03:37;;;;;;;3.72;2.10;;;19.10;40.90;;;;;;5438546;26;20283;-72